Time;durP1;ratioP1;P1;durP2;ratioP2;P2;SDS_P1;SDS_P2;PMS_P1;PMS_P2;Temp;Humidity;BMP_temperature;BMP_pressure;BME280_temperature;BME280_humidity;BME280_pressure;Samples;Min_cycle;Max_cycle;Signal;HPM_P1;HPM_P2
2021/12/19 00:01:09;;;;;;;9.98;6.12;;;2.80;99.90;;;;;;469494;253;27486;-73
2021/12/19 00:03:20;;;;;;;9.68;6.10;;;2.90;99.90;;;;;;468935;253;27469;-74
2021/12/19 00:09:34;;;;;;;8.77;5.82;;;2.80;99.90;;;;;;469030;250;27523;-74
2021/12/19 00:11:35;;;;;;;8.93;5.93;;;2.70;99.90;;;;;;469050;253;27863;-74
2021/12/19 00:13:37;;;;;;;8.88;6.03;;;2.70;99.90;;;;;;468985;253;27519;-73
2021/12/19 00:15:38;;;;;;;6.97;4.80;;;2.70;99.90;;;;;;468948;253;27459;-73
2021/12/19 00:17:39;;;;;;;10.05;6.12;;;2.60;99.90;;;;;;469130;253;27427;-73
2021/12/19 00:19:40;;;;;;;9.63;6.45;;;2.60;99.90;;;;;;468996;253;27974;-74
2021/12/19 00:21:41;;;;;;;8.40;5.50;;;2.60;99.90;;;;;;469105;253;29126;-75
2021/12/19 00:23:43;;;;;;;10.15;6.37;;;2.70;99.90;;;;;;469020;253;28065;-74
2021/12/19 00:25:44;;;;;;;7.75;5.40;;;2.70;99.90;;;;;;469015;253;27544;-73
2021/12/19 00:27:45;;;;;;;7.07;5.40;;;2.60;99.90;;;;;;469095;253;27435;-73
2021/12/19 00:29:46;;;;;;;8.90;5.90;;;2.60;99.90;;;;;;469098;253;27543;-74
2021/12/19 00:31:48;;;;;;;8.82;5.80;;;2.60;99.90;;;;;;469061;253;27460;-73
2021/12/19 00:33:49;;;;;;;5.93;4.90;;;2.70;99.90;;;;;;469097;253;27428;-73
2021/12/19 00:35:50;;;;;;;8.40;5.70;;;2.80;99.90;;;;;;469070;253;27483;-75
2021/12/19 00:37:51;;;;;;;8.45;5.72;;;2.70;99.90;;;;;;469116;253;27560;-73
2021/12/19 00:39:53;;;;;;;6.45;4.97;;;2.80;99.90;;;;;;469020;253;27531;-73
2021/12/19 00:41:54;;;;;;;8.55;6.20;;;2.70;99.90;;;;;;469103;253;27540;-75
2021/12/19 00:44:06;;;;;;;9.02;6.65;;;2.70;99.90;;;;;;469094;253;27536;-73
2021/12/19 00:45:58;;;;;;;9.27;5.95;;;2.60;99.90;;;;;;468253;253;27947;-73
2021/12/19 00:47:58;;;;;;;10.15;6.30;;;2.70;99.90;;;;;;469020;253;27902;-74
2021/12/19 00:49:59;;;;;;;9.10;6.22;;;2.70;99.90;;;;;;469098;253;27961;-73
2021/12/19 00:52:00;;;;;;;7.85;5.95;;;2.60;99.90;;;;;;469122;253;27455;-74
2021/12/19 00:54:04;;;;;;;8.13;6.05;;;2.60;99.90;;;;;;469087;253;27542;-73
2021/12/19 00:56:03;;;;;;;9.20;5.90;;;2.50;99.90;;;;;;468927;253;27463;-73
2021/12/19 00:58:04;;;;;;;7.28;5.50;;;2.60;99.90;;;;;;469094;253;27475;-73
2021/12/19 01:00:05;;;;;;;7.57;5.97;;;2.70;99.90;;;;;;469089;253;27505;-73
2021/12/19 01:02:06;;;;;;;6.00;5.40;;;2.60;99.90;;;;;;469110;253;27546;-73
2021/12/19 01:04:10;;;;;;;6.70;5.35;;;2.50;99.90;;;;;;469099;253;27515;-74
2021/12/19 01:06:09;;;;;;;7.50;5.65;;;2.60;99.90;;;;;;469009;253;27467;-74
2021/12/19 01:08:12;;;;;;;6.40;4.97;;;2.70;99.90;;;;;;469080;253;27595;-73
2021/12/19 01:10:11;;;;;;;7.40;5.50;;;2.70;99.90;;;;;;469014;253;27491;-73
2021/12/19 01:12:13;;;;;;;7.62;5.90;;;2.60;99.90;;;;;;469104;253;27907;-75
2021/12/19 01:14:14;;;;;;;7.05;5.55;;;2.60;99.90;;;;;;469097;253;27887;-73
2021/12/19 01:16:15;;;;;;;6.32;5.30;;;2.70;99.90;;;;;;469097;253;28038;-74
2021/12/19 01:18:16;;;;;;;7.00;4.93;;;2.80;99.90;;;;;;469087;253;28999;-73
2021/12/19 01:20:18;;;;;;;5.32;4.50;;;2.80;99.90;;;;;;469095;253;27966;-72
2021/12/19 01:22:19;;;;;;;6.28;4.70;;;2.80;99.90;;;;;;469114;253;27491;-74
2021/12/19 01:24:20;;;;;;;6.70;5.85;;;2.90;99.90;;;;;;469106;253;27575;-73
2021/12/19 01:26:21;;;;;;;6.62;4.70;;;2.90;99.90;;;;;;469115;253;27540;-74
2021/12/19 01:28:23;;;;;;;7.20;4.80;;;2.80;99.90;;;;;;469084;253;27415;-74
2021/12/19 01:30:24;;;;;;;5.78;4.78;;;2.80;99.90;;;;;;469089;253;27444;-73
2021/12/19 01:32:25;;;;;;;5.95;4.70;;;2.80;99.90;;;;;;469104;253;27473;-75
2021/12/19 01:34:26;;;;;;;5.25;4.30;;;2.80;99.90;;;;;;469114;253;27491;-73
2021/12/19 01:36:28;;;;;;;4.75;4.18;;;2.80;99.90;;;;;;469093;253;27455;-73
2021/12/19 01:38:30;;;;;;;4.37;3.97;;;2.90;99.90;;;;;;469106;253;27423;-73
2021/12/19 01:40:30;;;;;;;8.20;5.10;;;2.80;99.90;;;;;;469085;253;27532;-74
2021/12/19 01:42:31;;;;;;;5.15;3.90;;;2.90;99.90;;;;;;469130;253;27977;-74
2021/12/19 01:44:33;;;;;;;4.15;3.75;;;2.80;99.90;;;;;;469131;253;27873;-73
2021/12/19 01:46:34;;;;;;;4.72;3.62;;;2.70;99.90;;;;;;469043;253;27952;-74
2021/12/19 01:48:35;;;;;;;5.12;4.18;;;2.80;99.90;;;;;;471999;249;27517;-74
2021/12/19 01:50:37;;;;;;;4.90;3.80;;;2.90;99.90;;;;;;469276;250;27572;-74
2021/12/19 01:52:38;;;;;;;5.07;4.30;;;2.80;99.90;;;;;;472696;250;27608;-73
2021/12/19 01:54:39;;;;;;;5.90;4.57;;;2.70;99.90;;;;;;476710;249;27508;-73
2021/12/19 01:56:40;;;;;;;5.87;4.50;;;2.60;99.90;;;;;;476868;249;27570;-74
2021/12/19 01:58:42;;;;;;;4.07;3.55;;;2.70;99.90;;;;;;476821;249;27622;-74
2021/12/19 02:00:43;;;;;;;5.03;4.22;;;2.80;99.90;;;;;;476872;249;27564;-74
2021/12/19 02:02:44;;;;;;;6.40;4.78;;;2.90;99.90;;;;;;476875;249;27915;-74
2021/12/19 02:04:45;;;;;;;7.03;5.05;;;2.60;99.90;;;;;;476850;249;27611;-73
2021/12/19 02:06:47;;;;;;;4.43;3.62;;;2.60;99.90;;;;;;476882;249;27563;-74
2021/12/19 02:08:53;;;;;;;5.57;4.25;;;2.60;99.90;;;;;;476841;246;27521;-73
2021/12/19 02:10:52;;;;;;;7.03;5.03;;;2.70;99.90;;;;;;476592;249;27654;-74
2021/12/19 02:12:53;;;;;;;6.05;4.57;;;2.60;99.90;;;;;;476847;249;28139;-73
2021/12/19 02:14:54;;;;;;;5.37;4.45;;;2.60;99.90;;;;;;476873;249;28109;-75
2021/12/19 02:16:55;;;;;;;5.43;4.10;;;2.70;99.90;;;;;;476846;249;29079;-74
2021/12/19 02:18:57;;;;;;;4.47;4.07;;;2.80;99.90;;;;;;476855;249;28195;-74
2021/12/19 02:20:58;;;;;;;5.22;4.37;;;2.70;99.90;;;;;;476851;249;27522;-74
2021/12/19 02:22:59;;;;;;;7.18;4.30;;;2.70;99.90;;;;;;476877;249;27535;-74
2021/12/19 02:25:00;;;;;;;4.53;4.12;;;2.70;99.90;;;;;;476867;249;27537;-73
2021/12/19 02:27:02;;;;;;;5.12;4.18;;;2.70;99.90;;;;;;476882;249;27579;-74
2021/12/19 02:29:03;;;;;;;4.55;3.70;;;2.70;99.90;;;;;;476869;249;27560;-75
2021/12/19 02:31:04;;;;;;;4.68;3.87;;;2.80;99.90;;;;;;476852;249;27632;-74
2021/12/19 02:33:05;;;;;;;3.95;3.55;;;2.80;99.90;;;;;;476856;249;27587;-74
2021/12/19 02:35:09;;;;;;;4.03;3.40;;;2.90;99.90;;;;;;476878;249;27556;-73
2021/12/19 02:37:24;;;;;;;3.78;3.03;;;2.90;99.90;;;;;;476724;249;27527;-75
2021/12/19 02:48:11;;;;;;;3.20;2.75;;;2.90;99.90;;;;;;476825;249;29053;-73
2021/12/19 02:50:10;;;;;;;2.33;2.12;;;2.80;99.90;;;;;;476754;249;27600;-73
2021/12/19 02:52:11;;;;;;;2.92;2.55;;;2.90;99.90;;;;;;476823;249;27746;-74
2021/12/19 02:54:13;;;;;;;3.62;3.12;;;2.90;99.90;;;;;;476855;249;27615;-74
2021/12/19 02:56:14;;;;;;;5.40;3.17;;;2.80;99.90;;;;;;476816;249;27552;-74
2021/12/19 02:58:15;;;;;;;5.28;3.78;;;2.80;99.90;;;;;;476868;249;27608;-73
2021/12/19 03:00:16;;;;;;;4.25;3.20;;;2.80;99.90;;;;;;476860;249;27618;-74
2021/12/19 03:02:18;;;;;;;6.37;3.10;;;2.80;99.90;;;;;;476859;249;27964;-74
2021/12/19 03:04:19;;;;;;;4.00;3.30;;;2.80;99.90;;;;;;476888;249;28087;-74
2021/12/19 03:06:20;;;;;;;3.47;2.70;;;2.80;99.90;;;;;;476876;249;28022;-75
2021/12/19 03:08:21;;;;;;;3.10;2.80;;;2.90;99.90;;;;;;476732;249;28050;-74
2021/12/19 03:11:01;;;;;;;4.45;3.40;;;2.80;99.90;;;;;;476828;249;27663;-74
2021/12/19 03:12:57;;;;;;;2.60;2.40;;;2.80;99.90;;;;;;474812;249;27556;-74
2021/12/19 03:19:17;;;;;;;3.17;2.60;;;2.80;99.90;;;;;;476895;249;28043;-74
2021/12/19 03:21:20;;;;;;;3.40;2.60;;;2.80;99.90;;;;;;476880;249;28881;-73
2021/12/19 03:23:19;;;;;;;2.60;2.40;;;2.80;99.90;;;;;;476767;249;28086;-74
2021/12/19 03:25:21;;;;;;;2.42;2.22;;;2.70;99.90;;;;;;470468;249;27471;-75
2021/12/19 03:27:22;;;;;;;3.10;2.90;;;2.70;99.90;;;;;;468604;254;27486;-75
2021/12/19 03:29:23;;;;;;;2.42;2.22;;;2.70;99.90;;;;;;468644;254;27507;-74
2021/12/19 03:31:24;;;;;;;2.28;2.00;;;2.90;99.90;;;;;;468701;254;27527;-74
2021/12/19 03:33:26;;;;;;;2.95;2.58;;;2.90;99.90;;;;;;468665;254;27565;-74
2021/12/19 03:35:29;;;;;;;2.50;2.08;;;2.90;99.90;;;;;;468720;254;27575;-74
2021/12/19 03:37:28;;;;;;;2.92;2.12;;;2.90;99.90;;;;;;468550;254;27568;-73
2021/12/19 03:39:36;;;;;;;2.80;2.60;;;2.80;99.90;;;;;;468558;254;27563;-74
2021/12/19 03:41:34;;;;;;;2.30;2.10;;;2.90;99.90;;;;;;468021;254;27504;-73
2021/12/19 03:43:34;;;;;;;2.20;2.00;;;2.90;99.90;;;;;;468679;254;28094;-73
2021/12/19 03:45:36;;;;;;;2.55;2.35;;;3.00;99.90;;;;;;468650;254;29147;-74
2021/12/19 03:47:37;;;;;;;2.62;2.12;;;3.00;99.90;;;;;;468696;254;27586;-75
2021/12/19 03:49:38;;;;;;;2.78;2.50;;;3.10;99.90;;;;;;468730;254;27623;-74
2021/12/19 03:51:39;;;;;;;2.78;2.25;;;3.10;99.90;;;;;;468715;254;27619;-74
2021/12/19 03:53:41;;;;;;;2.53;2.33;;;3.10;99.90;;;;;;468712;254;27476;-74
2021/12/19 03:55:42;;;;;;;2.05;1.90;;;3.20;99.90;;;;;;468678;254;27521;-74
2021/12/19 03:57:43;;;;;;;3.55;2.47;;;3.20;99.90;;;;;;468688;254;27483;-74
2021/12/19 03:59:47;;;;;;;2.28;2.08;;;3.20;99.90;;;;;;468697;254;27460;-74
2021/12/19 04:01:50;;;;;;;2.22;2.03;;;3.20;99.90;;;;;;468468;254;27496;-74
2021/12/19 04:03:47;;;;;;;3.05;2.47;;;3.20;99.90;;;;;;468346;254;27519;-74
2021/12/19 04:05:48;;;;;;;2.33;2.08;;;3.20;99.90;;;;;;468656;254;27475;-74
2021/12/19 04:07:49;;;;;;;2.58;2.10;;;3.20;99.90;;;;;;468713;254;27487;-74
2021/12/19 04:09:51;;;;;;;2.22;1.98;;;3.20;99.90;;;;;;468686;254;27972;-74
2021/12/19 04:11:55;;;;;;;2.75;2.25;;;3.10;99.90;;;;;;468690;254;28055;-74
2021/12/19 04:13:53;;;;;;;4.28;2.70;;;3.10;99.90;;;;;;468506;254;28213;-74
2021/12/19 04:15:54;;;;;;;2.85;2.65;;;3.20;99.90;;;;;;468702;254;27912;-74
2021/12/19 04:17:56;;;;;;;2.83;2.55;;;3.20;99.90;;;;;;468697;254;27507;-75
2021/12/19 04:19:57;;;;;;;3.35;2.97;;;3.10;99.90;;;;;;468677;254;27447;-74
2021/12/19 04:21:59;;;;;;;4.53;3.35;;;3.10;99.90;;;;;;468714;254;27482;-75
2021/12/19 04:23:59;;;;;;;4.32;3.37;;;3.10;99.90;;;;;;468637;254;27444;-74
2021/12/19 04:26:01;;;;;;;2.97;2.70;;;3.10;99.90;;;;;;468681;254;27480;-74
2021/12/19 04:28:02;;;;;;;3.12;2.90;;;3.00;99.90;;;;;;468746;254;27514;-74
2021/12/19 04:30:03;;;;;;;2.83;2.62;;;3.00;99.90;;;;;;468722;254;27436;-74
2021/12/19 04:32:07;;;;;;;3.70;3.25;;;3.00;99.90;;;;;;468723;254;27591;-74
2021/12/19 04:34:06;;;;;;;4.37;3.62;;;3.00;99.90;;;;;;468560;254;27463;-74
2021/12/19 04:36:09;;;;;;;3.47;3.17;;;3.00;99.90;;;;;;468698;254;27479;-74
2021/12/19 04:40:37;;;;;;;3.85;3.45;;;3.00;99.90;;;;;;468688;250;27439;-74
2021/12/19 04:51:56;;;;;;;4.30;3.50;;;3.00;99.90;;;;;;468708;254;27506;-74
2021/12/19 04:57:53;;;;;;;3.65;3.28;;;3.00;99.90;;;;;;468678;254;27528;-75
2021/12/19 04:59:54;;;;;;;4.40;3.87;;;2.80;99.90;;;;;;468055;254;28010;-74
2021/12/19 05:02:10;;;;;;;4.47;4.05;;;2.90;99.90;;;;;;468356;254;27499;-76
2021/12/19 05:06:45;;;;;;;4.47;4.05;;;2.90;99.90;;;;;;468614;254;27550;-74
2021/12/19 05:15:25;;;;;;;3.83;3.15;;;2.80;99.90;;;;;;468657;254;27511;-74
2021/12/19 05:17:26;;;;;;;3.22;2.92;;;2.80;99.90;;;;;;468288;254;27479;-74
2021/12/19 05:19:28;;;;;;;3.78;3.42;;;2.80;99.90;;;;;;468379;254;27947;-74
2021/12/19 05:21:27;;;;;;;4.37;3.65;;;2.80;99.90;;;;;;468320;251;28042;-74
2021/12/19 05:25:34;;;;;;;3.53;3.22;;;2.80;99.90;;;;;;468690;254;27571;-74
2021/12/19 05:27:35;;;;;;;3.53;3.22;;;2.80;99.90;;;;;;468700;254;27551;-74
2021/12/19 05:29:36;;;;;;;5.18;4.03;;;2.80;99.90;;;;;;468716;254;27463;-74
2021/12/19 05:31:37;;;;;;;4.55;3.62;;;2.80;99.90;;;;;;468658;254;27491;-75
2021/12/19 05:33:39;;;;;;;3.12;2.83;;;2.80;99.90;;;;;;468684;254;27524;-75
2021/12/19 05:45:19;;;;;;;3.70;3.30;;;3.00;99.90;;;;;;468689;254;27499;-75
2021/12/19 05:47:17;;;;;;;4.18;3.05;;;3.00;99.90;;;;;;468429;254;27429;-73
2021/12/19 05:49:18;;;;;;;3.53;3.00;;;3.00;99.90;;;;;;468652;254;27562;-74
2021/12/19 05:51:19;;;;;;;4.47;3.60;;;3.00;99.90;;;;;;468708;254;27543;-74
2021/12/19 05:53:20;;;;;;;4.18;3.50;;;3.00;99.90;;;;;;468659;254;27963;-74
2021/12/19 05:55:22;;;;;;;4.22;3.47;;;3.00;99.90;;;;;;468662;254;28035;-74
2021/12/19 05:57:23;;;;;;;5.00;3.92;;;3.00;99.90;;;;;;468682;254;28048;-74
2021/12/19 05:59:24;;;;;;;4.50;3.90;;;3.00;99.90;;;;;;468646;254;28059;-75
2021/12/19 06:01:25;;;;;;;4.65;3.70;;;3.00;99.90;;;;;;468675;254;27432;-74
2021/12/19 06:03:27;;;;;;;5.55;4.22;;;2.90;99.90;;;;;;468665;254;27553;-75
2021/12/19 06:05:28;;;;;;;6.93;4.85;;;2.90;99.90;;;;;;468689;254;27475;-75
2021/12/19 06:07:29;;;;;;;5.55;4.18;;;3.00;99.90;;;;;;468662;254;27444;-75
2021/12/19 06:09:30;;;;;;;6.82;4.20;;;3.00;99.90;;;;;;468640;254;27567;-75
2021/12/19 06:11:32;;;;;;;6.40;4.57;;;2.90;99.90;;;;;;468665;254;27559;-73
2021/12/19 06:13:33;;;;;;;5.72;4.35;;;3.00;99.90;;;;;;468681;254;27482;-74
2021/12/19 06:15:36;;;;;;;5.65;4.37;;;3.00;99.90;;;;;;468654;254;27571;-75
2021/12/19 06:17:35;;;;;;;5.20;4.05;;;3.00;99.90;;;;;;468598;254;27448;-74
2021/12/19 06:19:37;;;;;;;6.03;4.50;;;3.00;99.90;;;;;;468673;254;27579;-74
2021/12/19 06:21:38;;;;;;;5.75;4.35;;;3.10;99.90;;;;;;468641;254;27456;-73
2021/12/19 06:23:39;;;;;;;6.43;4.93;;;3.10;99.90;;;;;;468698;254;27896;-73
2021/12/19 06:25:45;;;;;;;6.40;4.80;;;3.00;99.90;;;;;;468690;254;28035;-75
2021/12/19 06:27:42;;;;;;;9.05;6.50;;;3.10;99.90;;;;;;468364;254;27875;-74
2021/12/19 06:29:43;;;;;;;7.75;5.30;;;3.10;99.90;;;;;;468696;254;29124;-75
2021/12/19 06:31:44;;;;;;;7.90;6.00;;;3.10;99.90;;;;;;468680;254;27486;-74
2021/12/19 06:33:45;;;;;;;6.10;5.30;;;3.10;99.90;;;;;;468717;254;27444;-74
2021/12/19 06:35:47;;;;;;;6.45;5.00;;;3.10;99.90;;;;;;468682;254;27475;-73
2021/12/19 06:37:48;;;;;;;6.12;5.03;;;3.10;99.90;;;;;;468700;254;27460;-74
2021/12/19 06:39:49;;;;;;;6.97;5.22;;;3.10;99.90;;;;;;468317;250;27488;-74
2021/12/19 06:41:50;;;;;;;7.18;5.20;;;3.10;99.90;;;;;;468957;253;27588;-74
2021/12/19 06:43:52;;;;;;;8.00;5.75;;;3.20;99.90;;;;;;468922;253;27651;-74
2021/12/19 06:45:55;;;;;;;6.72;4.65;;;3.10;99.90;;;;;;468956;253;27665;-75
2021/12/19 06:47:54;;;;;;;7.50;5.53;;;3.10;99.90;;;;;;468827;253;27530;-73
2021/12/19 06:49:55;;;;;;;8.23;5.22;;;3.20;99.90;;;;;;468925;253;27647;-74
2021/12/19 06:51:57;;;;;;;9.27;6.30;;;3.20;99.90;;;;;;468864;253;28063;-74
2021/12/19 06:53:58;;;;;;;8.48;5.65;;;3.20;99.90;;;;;;468961;253;28174;-74
2021/12/19 06:55:59;;;;;;;8.10;5.68;;;3.20;99.90;;;;;;468926;253;29140;-74
2021/12/19 06:58:00;;;;;;;9.73;6.62;;;3.10;99.90;;;;;;468889;253;27997;-74
2021/12/19 07:00:02;;;;;;;7.37;5.75;;;3.20;99.90;;;;;;468983;253;27582;-75
2021/12/19 07:02:03;;;;;;;7.22;5.50;;;3.10;99.90;;;;;;469022;253;27590;-75
2021/12/19 07:04:04;;;;;;;6.25;5.22;;;3.10;99.90;;;;;;468957;253;27541;-74
2021/12/19 07:06:05;;;;;;;8.18;5.70;;;3.10;99.90;;;;;;468962;253;27597;-75
2021/12/19 07:08:07;;;;;;;8.25;6.10;;;3.10;99.90;;;;;;468965;253;27536;-74
2021/12/19 07:10:08;;;;;;;9.95;6.70;;;3.10;99.90;;;;;;469000;253;27574;-74
2021/12/19 07:12:09;;;;;;;9.68;7.00;;;3.10;99.90;;;;;;468954;253;27616;-75
2021/12/19 07:14:10;;;;;;;9.98;7.05;;;3.10;99.90;;;;;;468979;253;27547;-74
2021/12/19 07:16:12;;;;;;;10.80;6.80;;;3.10;99.90;;;;;;468990;253;27577;-74
2021/12/19 07:18:13;;;;;;;10.18;7.10;;;3.10;99.90;;;;;;469001;253;27659;-74
2021/12/19 07:20:14;;;;;;;8.80;6.90;;;3.10;99.90;;;;;;468944;253;28174;-74
2021/12/19 07:22:15;;;;;;;9.43;7.50;;;3.00;99.90;;;;;;468984;253;28062;-75
2021/12/19 07:24:17;;;;;;;11.40;7.40;;;3.10;99.90;;;;;;468968;253;28090;-74
2021/12/19 07:26:18;;;;;;;10.45;7.32;;;3.00;99.90;;;;;;468947;253;27573;-75
2021/12/19 07:28:19;;;;;;;9.43;7.50;;;3.10;99.90;;;;;;468990;253;27673;-75
2021/12/19 07:30:24;;;;;;;12.43;7.25;;;3.10;99.90;;;;;;468978;253;27546;-74
2021/12/19 07:32:22;;;;;;;13.80;9.18;;;3.10;99.90;;;;;;468723;253;27567;-74
2021/12/19 07:34:30;;;;;;;12.93;8.90;;;3.10;99.90;;;;;;468977;253;27670;-74
2021/12/19 07:36:29;;;;;;;12.23;7.87;;;3.10;99.90;;;;;;468428;253;27615;-74
2021/12/19 07:38:33;;;;;;;13.68;8.70;;;3.20;99.90;;;;;;468665;253;27566;-74
2021/12/19 07:40:35;;;;;;;11.35;8.40;;;3.20;99.90;;;;;;468388;253;28128;-74
2021/12/19 07:42:28;;;;;;;12.27;8.63;;;3.10;99.90;;;;;;468389;253;28097;-75
2021/12/19 07:44:29;;;;;;;15.32;8.73;;;3.10;99.90;;;;;;468999;253;28005;-74
2021/12/19 07:46:31;;;;;;;11.55;8.23;;;3.10;99.90;;;;;;468965;253;27671;-75
2021/12/19 07:48:32;;;;;;;14.40;8.00;;;3.20;99.90;;;;;;468982;253;27663;-74
2021/12/19 07:50:33;;;;;;;13.23;8.65;;;3.10;99.90;;;;;;468978;253;27578;-74
2021/12/19 07:52:34;;;;;;;13.27;8.38;;;3.10;99.90;;;;;;468970;253;27585;-75
2021/12/19 07:54:36;;;;;;;17.20;10.50;;;3.10;99.90;;;;;;468974;253;27688;-74
2021/12/19 07:56:37;;;;;;;16.00;10.68;;;3.10;99.90;;;;;;468984;253;27589;-75
2021/12/19 07:58:38;;;;;;;15.48;10.90;;;3.10;99.90;;;;;;468980;253;27660;-75
2021/12/19 08:00:39;;;;;;;17.12;11.60;;;3.10;99.90;;;;;;468986;253;27988;-74
2021/12/19 08:02:41;;;;;;;19.62;11.57;;;3.10;99.90;;;;;;468958;253;29260;-74
2021/12/19 08:04:42;;;;;;;17.65;10.73;;;3.10;99.90;;;;;;468988;253;27543;-75
2021/12/19 08:06:43;;;;;;;15.30;10.48;;;3.10;99.90;;;;;;469010;253;27600;-75
2021/12/19 08:08:50;;;;;;;15.05;10.10;;;3.10;99.90;;;;;;468966;253;27575;-76
2021/12/19 08:12:49;;;;;;;15.57;9.88;;;3.20;99.90;;;;;;469003;253;27654;-74
2021/12/19 08:14:51;;;;;;;14.23;9.23;;;3.10;99.90;;;;;;468980;253;27582;-75
2021/12/19 08:16:52;;;;;;;13.60;9.13;;;3.10;99.90;;;;;;468988;253;27540;-75
2021/12/19 08:18:53;;;;;;;13.35;9.10;;;3.20;99.90;;;;;;468963;253;27586;-75
2021/12/19 08:20:54;;;;;;;15.98;10.02;;;3.20;99.90;;;;;;469005;253;28173;-75
2021/12/19 08:22:56;;;;;;;13.50;9.02;;;3.20;99.90;;;;;;469013;253;28071;-74
2021/12/19 08:24:57;;;;;;;15.30;9.52;;;3.20;99.90;;;;;;469006;253;27571;-75
2021/12/19 08:26:58;;;;;;;10.68;8.05;;;3.30;99.90;;;;;;469018;253;27581;-74
2021/12/19 08:29:00;;;;;;;15.25;9.07;;;3.30;99.90;;;;;;469039;253;27543;-74
2021/12/19 08:31:01;;;;;;;13.15;9.18;;;3.40;99.90;;;;;;468922;253;27589;-74
2021/12/19 08:33:02;;;;;;;12.60;9.15;;;3.40;99.90;;;;;;469013;253;27551;-74
2021/12/19 08:35:03;;;;;;;16.83;9.60;;;3.40;99.90;;;;;;468893;249;27588;-74
2021/12/19 08:37:05;;;;;;;14.48;8.65;;;3.40;99.90;;;;;;468647;254;27469;-74
2021/12/19 08:39:07;;;;;;;10.60;7.87;;;3.40;99.90;;;;;;468660;254;27866;-74
2021/12/19 08:41:07;;;;;;;13.13;9.45;;;3.50;99.90;;;;;;468469;254;27941;-75
2021/12/19 08:43:08;;;;;;;12.77;8.07;;;3.40;99.90;;;;;;468636;254;27897;-74
2021/12/19 08:45:10;;;;;;;15.15;9.20;;;3.50;99.90;;;;;;468627;254;27584;-76
2021/12/19 08:47:11;;;;;;;15.43;9.60;;;3.50;99.90;;;;;;468754;253;27448;-74
2021/12/19 08:49:12;;;;;;;13.65;9.50;;;3.50;99.90;;;;;;468995;253;27637;-75
2021/12/19 08:51:13;;;;;;;12.00;8.35;;;3.50;99.90;;;;;;469010;253;27606;-75
2021/12/19 08:53:15;;;;;;;10.95;7.90;;;3.50;99.90;;;;;;468987;253;27621;-74
2021/12/19 08:55:16;;;;;;;12.75;8.32;;;3.50;99.90;;;;;;468991;253;27661;-75
2021/12/19 08:57:17;;;;;;;10.05;7.95;;;3.60;99.90;;;;;;468998;253;28067;-76
2021/12/19 08:59:18;;;;;;;12.55;9.00;;;3.60;99.90;;;;;;469005;253;27986;-74
2021/12/19 09:01:20;;;;;;;12.13;8.80;;;3.70;99.90;;;;;;468955;252;28126;-75
2021/12/19 09:03:21;;;;;;;13.85;9.65;;;3.70;99.90;;;;;;468972;253;27666;-76
2021/12/19 09:05:22;;;;;;;14.00;9.43;;;3.70;99.90;;;;;;469021;253;27599;-75
2021/12/19 09:07:23;;;;;;;13.52;9.13;;;3.80;99.90;;;;;;469016;253;27695;-76
2021/12/19 09:09:25;;;;;;;17.50;10.77;;;3.80;99.90;;;;;;468993;253;27551;-75
2021/12/19 09:11:26;;;;;;;16.50;9.70;;;3.80;99.90;;;;;;468951;253;27649;-74
2021/12/19 09:13:27;;;;;;;13.77;9.70;;;3.80;99.90;;;;;;468963;253;27595;-74
2021/12/19 09:15:28;;;;;;;14.18;9.75;;;3.80;99.90;;;;;;469016;253;27667;-75
2021/12/19 09:17:30;;;;;;;17.70;9.95;;;3.80;99.90;;;;;;468996;253;28145;-75
2021/12/19 09:19:31;;;;;;;12.43;9.05;;;3.90;99.90;;;;;;469002;253;28000;-74
2021/12/19 09:21:32;;;;;;;15.18;10.43;;;3.90;99.90;;;;;;469001;253;28058;-74
2021/12/19 09:23:33;;;;;;;12.68;8.55;;;3.90;99.90;;;;;;468986;253;27584;-74
2021/12/19 09:25:35;;;;;;;11.63;9.05;;;3.90;99.90;;;;;;468974;253;27583;-75
2021/12/19 09:27:36;;;;;;;13.50;8.85;;;4.00;99.90;;;;;;468990;253;27581;-75
2021/12/19 09:29:37;;;;;;;13.48;8.68;;;4.00;99.90;;;;;;469011;251;27550;-75
2021/12/19 09:31:38;;;;;;;14.27;8.27;;;4.00;99.90;;;;;;468713;253;27584;-75
2021/12/19 09:33:40;;;;;;;13.85;8.70;;;4.00;99.90;;;;;;468900;253;27540;-75
2021/12/19 09:35:41;;;;;;;14.68;8.60;;;4.00;99.90;;;;;;468998;253;28064;-75
2021/12/19 09:37:42;;;;;;;13.27;8.50;;;4.00;99.90;;;;;;468997;253;28041;-76
2021/12/19 09:39:43;;;;;;;12.45;8.75;;;4.00;99.90;;;;;;469000;253;27574;-76
2021/12/19 09:41:45;;;;;;;11.48;8.05;;;4.00;99.90;;;;;;468986;253;27602;-75
2021/12/19 09:43:46;;;;;;;12.30;8.02;;;4.00;99.90;;;;;;469006;253;27648;-74
2021/12/19 09:45:47;;;;;;;13.02;8.52;;;4.00;99.90;;;;;;469024;253;27652;-76
2021/12/19 09:47:48;;;;;;;13.62;7.80;;;4.10;99.90;;;;;;468998;253;27596;-76
2021/12/19 09:49:50;;;;;;;11.80;8.20;;;4.10;99.90;;;;;;468966;253;27543;-76
2021/12/19 09:51:52;;;;;;;11.93;8.20;;;4.10;99.90;;;;;;469006;253;27613;-75
2021/12/19 09:53:52;;;;;;;10.95;7.70;;;4.10;99.90;;;;;;468957;253;28165;-76
2021/12/19 09:55:53;;;;;;;12.40;8.50;;;4.20;99.90;;;;;;469148;249;27998;-76
2021/12/19 09:57:55;;;;;;;13.13;9.10;;;4.20;99.90;;;;;;469016;253;28046;-76
2021/12/19 09:59:56;;;;;;;12.40;9.27;;;4.20;99.90;;;;;;469061;253;27434;-76
2021/12/19 10:01:57;;;;;;;12.10;8.60;;;4.20;99.90;;;;;;469046;253;27459;-75
2021/12/19 10:03:58;;;;;;;13.73;8.40;;;4.30;99.90;;;;;;469131;253;27502;-75
2021/12/19 10:06:00;;;;;;;14.68;8.98;;;4.30;99.90;;;;;;468960;250;27431;-76
2021/12/19 10:08:02;;;;;;;13.70;8.48;;;4.30;99.90;;;;;;468676;250;27590;-77
2021/12/19 10:10:04;;;;;;;11.82;8.60;;;4.30;99.90;;;;;;468828;253;27539;-78
2021/12/19 10:12:22;;;;;;;12.98;7.78;;;4.30;99.90;;;;;;468813;253;28037;-76
2021/12/19 10:14:05;;;;;;;14.40;8.55;;;4.30;99.90;;;;;;467378;253;28141;-74
2021/12/19 10:16:06;;;;;;;13.32;8.40;;;4.30;99.90;;;;;;468996;253;27551;-77
2021/12/19 10:18:07;;;;;;;13.13;7.70;;;4.40;99.90;;;;;;469004;253;27577;-77
2021/12/19 10:20:09;;;;;;;12.15;8.55;;;4.40;99.90;;;;;;469004;253;27563;-77
2021/12/19 10:22:10;;;;;;;14.02;8.80;;;4.40;99.90;;;;;;468917;253;27923;-77
2021/12/19 10:24:11;;;;;;;12.73;8.52;;;4.40;99.90;;;;;;469007;253;27595;-76
2021/12/19 10:26:12;;;;;;;12.35;8.18;;;4.40;99.90;;;;;;468990;253;27618;-76
2021/12/19 10:28:14;;;;;;;14.93;8.93;;;4.40;99.90;;;;;;468988;253;27674;-79
2021/12/19 10:30:15;;;;;;;14.77;8.20;;;4.40;99.90;;;;;;468994;253;28949;-76
2021/12/19 10:32:16;;;;;;;13.10;9.05;;;4.40;99.90;;;;;;468989;253;28122;-77
2021/12/19 10:34:17;;;;;;;13.50;8.77;;;4.50;99.90;;;;;;468910;253;27585;-76
2021/12/19 10:36:19;;;;;;;13.23;7.75;;;4.50;99.90;;;;;;468983;253;27543;-77
2021/12/19 10:38:20;;;;;;;14.20;8.68;;;4.50;99.90;;;;;;468940;253;27589;-77
2021/12/19 10:40:21;;;;;;;15.45;8.20;;;4.50;99.90;;;;;;468949;253;27922;-78
2021/12/19 10:42:22;;;;;;;13.32;8.35;;;4.40;99.90;;;;;;469509;249;27682;-77
2021/12/19 10:46:44;;;;;;;10.70;7.60;;;4.60;99.90;;;;;;469321;250;27831;-76
2021/12/19 10:48:44;;;;;;;16.52;8.80;;;4.60;99.90;;;;;;469387;253;27434;-76
2021/12/19 10:50:46;;;;;;;15.23;8.70;;;4.60;99.90;;;;;;469344;253;28091;-76
2021/12/19 10:52:47;;;;;;;13.40;8.57;;;4.50;99.90;;;;;;469373;253;27945;-77
2021/12/19 10:54:48;;;;;;;16.60;9.13;;;4.60;99.90;;;;;;469360;253;27582;-76
2021/12/19 10:56:50;;;;;;;15.52;8.25;;;4.50;99.90;;;;;;469346;253;27475;-76
2021/12/19 10:58:54;;;;;;;14.32;9.30;;;4.50;99.90;;;;;;469280;253;27446;-76
2021/12/19 11:00:52;;;;;;;14.52;8.88;;;4.50;99.90;;;;;;469578;249;27630;-76
2021/12/19 11:02:53;;;;;;;17.98;10.13;;;4.50;99.90;;;;;;470036;253;27693;-77
2021/12/19 11:04:55;;;;;;;18.02;9.32;;;4.50;99.90;;;;;;470068;253;27562;-77
2021/12/19 11:06:57;;;;;;;14.73;8.45;;;4.50;99.90;;;;;;470095;253;28120;-76
2021/12/19 11:08:58;;;;;;;14.60;9.30;;;4.50;99.90;;;;;;469901;250;28046;-77
2021/12/19 11:10:58;;;;;;;15.93;9.30;;;4.50;99.90;;;;;;469680;253;27548;-77
2021/12/19 11:13:00;;;;;;;14.55;8.32;;;4.50;99.90;;;;;;468964;253;27554;-76
2021/12/19 11:15:01;;;;;;;17.42;8.65;;;4.50;99.90;;;;;;468993;253;27589;-77
2021/12/19 11:17:02;;;;;;;16.10;9.18;;;4.50;99.90;;;;;;469020;249;27560;-77
2021/12/19 11:19:03;;;;;;;19.17;9.88;;;4.50;99.90;;;;;;470079;253;27673;-78
2021/12/19 11:21:05;;;;;;;15.98;8.55;;;4.50;99.90;;;;;;469499;253;27591;-76
2021/12/19 11:23:06;;;;;;;17.67;8.65;;;4.40;99.90;;;;;;469521;249;28750;-77
2021/12/19 11:25:07;;;;;;;15.32;9.43;;;4.40;99.90;;;;;;469259;249;28070;-77
2021/12/19 11:27:08;;;;;;;16.77;9.73;;;4.40;99.90;;;;;;478165;249;27550;-76
2021/12/19 11:29:10;;;;;;;14.70;8.95;;;4.50;99.90;;;;;;478016;249;27490;-77
2021/12/19 11:31:11;;;;;;;15.35;9.05;;;4.50;99.90;;;;;;478088;249;27648;-77
2021/12/19 11:33:12;;;;;;;14.07;8.20;;;4.60;99.90;;;;;;478031;249;27514;-76
2021/12/19 11:35:14;;;;;;;15.27;8.95;;;4.60;99.90;;;;;;478155;249;27576;-77